sensor_id;sensor_type;location;lat;lon;timestamp;pressure;altitude;pressure_sealevel;temperature
32039;BMP280;18549;42.286;22.688;2023-04-24T00:02:02;95436.16;;;16.29
32039;BMP280;18549;42.286;22.688;2023-04-24T00:04:29;95430.38;;;16.28
32039;BMP280;18549;42.286;22.688;2023-04-24T00:06:57;95427.75;;;16.30
32039;BMP280;18549;42.286;22.688;2023-04-24T00:09:25;95425.66;;;16.16
32039;BMP280;18549;42.286;22.688;2023-04-24T00:11:52;95426.16;;;16.10
32039;BMP280;18549;42.286;22.688;2023-04-24T00:14:19;95422.09;;;16.09
32039;BMP280;18549;42.286;22.688;2023-04-24T00:16:47;95432.22;;;16.08
32039;BMP280;18549;42.286;22.688;2023-04-24T00:19:14;95426.69;;;16.04
32039;BMP280;18549;42.286;22.688;2023-04-24T00:21:41;95430.00;;;16.05
32039;BMP280;18549;42.286;22.688;2023-04-24T00:24:10;95421.19;;;16.01
32039;BMP280;18549;42.286;22.688;2023-04-24T00:26:38;95421.97;;;16.01
32039;BMP280;18549;42.286;22.688;2023-04-24T00:29:05;95418.16;;;15.97
32039;BMP280;18549;42.286;22.688;2023-04-24T00:31:31;95419.75;;;15.98
32039;BMP280;18549;42.286;22.688;2023-04-24T00:34:03;95419.06;;;15.96
32039;BMP280;18549;42.286;22.688;2023-04-24T00:36:30;95419.75;;;15.98
32039;BMP280;18549;42.286;22.688;2023-04-24T00:38:58;95412.91;;;16.00
32039;BMP280;18549;42.286;22.688;2023-04-24T00:41:26;95411.31;;;15.99
32039;BMP280;18549;42.286;22.688;2023-04-24T00:43:53;95421.06;;;16.02
32039;BMP280;18549;42.286;22.688;2023-04-24T00:46:20;95416.19;;;16.01
32039;BMP280;18549;42.286;22.688;2023-04-24T00:48:47;95416.84;;;16.03
32039;BMP280;18549;42.286;22.688;2023-04-24T00:51:15;95408.41;;;16.04
32039;BMP280;18549;42.286;22.688;2023-04-24T00:53:46;95409.88;;;15.87
32039;BMP280;18549;42.286;22.688;2023-04-24T00:56:13;95415.28;;;15.83
32039;BMP280;18549;42.286;22.688;2023-04-24T00:58:40;95421.97;;;15.83
32039;BMP280;18549;42.286;22.688;2023-04-24T01:01:08;95413.56;;;15.83
32039;BMP280;18549;42.286;22.688;2023-04-24T01:03:37;95418.16;;;15.88
32039;BMP280;18549;42.286;22.688;2023-04-24T01:06:05;95417.38;;;15.87
32039;BMP280;18549;42.286;22.688;2023-04-24T01:08:34;95419.59;;;15.90
32039;BMP280;18549;42.286;22.688;2023-04-24T01:11:03;95407.09;;;15.90
32039;BMP280;18549;42.286;22.688;2023-04-24T01:13:31;95408.69;;;15.91
32039;BMP280;18549;42.286;22.688;2023-04-24T01:15:58;95411.19;;;15.91
32039;BMP280;18549;42.286;22.688;2023-04-24T01:18:26;95402.25;;;15.89
32039;BMP280;18549;42.286;22.688;2023-04-24T01:20:55;95403.69;;;15.91
32039;BMP280;18549;42.286;22.688;2023-04-24T01:23:24;95394.34;;;15.93
32039;BMP280;18549;42.286;22.688;2023-04-24T01:25:52;95393.81;;;15.90
32039;BMP280;18549;42.286;22.688;2023-04-24T01:28:19;95390.41;;;15.91
32039;BMP280;18549;42.286;22.688;2023-04-24T01:30:46;95383.03;;;15.89
32039;BMP280;18549;42.286;22.688;2023-04-24T01:33:13;95388.03;;;15.89
32039;BMP280;18549;42.286;22.688;2023-04-24T01:35:40;95384.59;;;15.90
32039;BMP280;18549;42.286;22.688;2023-04-24T01:38:07;95389.59;;;15.90
32039;BMP280;18549;42.286;22.688;2023-04-24T01:40:35;95381.47;;;15.88
32039;BMP280;18549;42.286;22.688;2023-04-24T01:43:02;95376.47;;;15.88
32039;BMP280;18549;42.286;22.688;2023-04-24T01:45:29;95377.38;;;15.87
32039;BMP280;18549;42.286;22.688;2023-04-24T01:47:56;95367.66;;;15.84
32039;BMP280;18549;42.286;22.688;2023-04-24T01:50:23;95374.22;;;15.85
32039;BMP280;18549;42.286;22.688;2023-04-24T01:52:50;95380.16;;;15.84
32039;BMP280;18549;42.286;22.688;2023-04-24T01:55:17;95385.16;;;15.84
32039;BMP280;18549;42.286;22.688;2023-04-24T01:57:45;95383.44;;;15.85
32039;BMP280;18549;42.286;22.688;2023-04-24T02:00:13;95380.16;;;15.84
32039;BMP280;18549;42.286;22.688;2023-04-24T02:02:40;95368.84;;;15.81
32039;BMP280;18549;42.286;22.688;2023-04-24T02:05:08;95374.50;;;15.73
32039;BMP280;18549;42.286;22.688;2023-04-24T02:07:35;95366.25;;;15.73
32039;BMP280;18549;42.286;22.688;2023-04-24T02:10:03;95371.22;;;15.73
32039;BMP280;18549;42.286;22.688;2023-04-24T02:12:30;95368.59;;;15.74
32039;BMP280;18549;42.286;22.688;2023-04-24T02:14:58;95370.97;;;15.76
32039;BMP280;18549;42.286;22.688;2023-04-24T02:17:25;95368.47;;;15.76
32039;BMP280;18549;42.286;22.688;2023-04-24T02:19:52;95360.03;;;15.77
32039;BMP280;18549;42.286;22.688;2023-04-24T02:22:19;95359.91;;;15.78
32039;BMP280;18549;42.286;22.688;2023-04-24T02:24:46;95356.63;;;15.78
32039;BMP280;18549;42.286;22.688;2023-04-24T02:27:12;95355.03;;;15.77
32039;BMP280;18549;42.286;22.688;2023-04-24T02:29:40;95359.25;;;15.76
32039;BMP280;18549;42.286;22.688;2023-04-24T02:32:08;95349.38;;;15.75
32039;BMP280;18549;42.286;22.688;2023-04-24T02:34:37;95346.09;;;15.74
32039;BMP280;18549;42.286;22.688;2023-04-24T02:37:04;95347.03;;;15.73
32039;BMP280;18549;42.286;22.688;2023-04-24T02:39:31;95347.16;;;15.72
32039;BMP280;18549;42.286;22.688;2023-04-24T02:41:58;95343.09;;;15.71
32039;BMP280;18549;42.286;22.688;2023-04-24T02:44:25;95344.37;;;15.65
32039;BMP280;18549;42.286;22.688;2023-04-24T02:46:52;95348.59;;;15.65
32039;BMP280;18549;42.286;22.688;2023-04-24T02:49:20;95339.53;;;15.64
32039;BMP280;18549;42.286;22.688;2023-04-24T02:51:47;95344.53;;;15.64
32039;BMP280;18549;42.286;22.688;2023-04-24T02:54:13;95349.66;;;15.62
32039;BMP280;18549;42.286;22.688;2023-04-24T02:56:41;95354.66;;;15.62
32039;BMP280;18549;42.286;22.688;2023-04-24T02:59:08;95346.78;;;15.57
32039;BMP280;18549;42.286;22.688;2023-04-24T03:01:36;95347.06;;;15.54
32039;BMP280;18549;42.286;22.688;2023-04-24T03:04:03;95349.41;;;15.56
32039;BMP280;18549;42.286;22.688;2023-04-24T03:06:31;95347.06;;;15.54
32039;BMP280;18549;42.286;22.688;2023-04-24T03:09:00;95352.28;;;15.51
32039;BMP280;18549;42.286;22.688;2023-04-24T03:11:27;95349.00;;;15.51
32039;BMP280;18549;42.286;22.688;2023-04-24T03:13:54;95341.63;;;15.50
32039;BMP280;18549;42.286;22.688;2023-04-24T03:16:21;95348.50;;;15.48
32039;BMP280;18549;42.286;22.688;2023-04-24T03:18:48;95346.13;;;15.46
32039;BMP280;18549;42.286;22.688;2023-04-24T03:21:14;95349.69;;;15.44
32039;BMP280;18549;42.286;22.688;2023-04-24T03:23:42;95349.69;;;15.44
32039;BMP280;18549;42.286;22.688;2023-04-24T03:26:09;95349.78;;;15.42
32039;BMP280;18549;42.286;22.688;2023-04-24T03:28:36;95352.28;;;15.42
32039;BMP280;18549;42.286;22.688;2023-04-24T03:31:03;95348.09;;;15.43
32039;BMP280;18549;42.286;22.688;2023-04-24T03:33:30;95350.72;;;15.41
32039;BMP280;18549;42.286;22.688;2023-04-24T03:35:56;95353.63;;;15.37
32039;BMP280;18549;42.286;22.688;2023-04-24T03:38:23;95345.59;;;15.33
32039;BMP280;18549;42.286;22.688;2023-04-24T03:40:51;95352.41;;;15.31
32039;BMP280;18549;42.286;22.688;2023-04-24T03:43:18;95354.53;;;15.26
32039;BMP280;18549;42.286;22.688;2023-04-24T03:45:45;95352.28;;;15.23
32039;BMP280;18549;42.286;22.688;2023-04-24T03:48:12;95361.34;;;15.24
32039;BMP280;18549;42.286;22.688;2023-04-24T03:50:38;95354.66;;;15.25
32039;BMP280;18549;42.286;22.688;2023-04-24T03:53:05;95361.34;;;15.24
32039;BMP280;18549;42.286;22.688;2023-04-24T03:55:32;95362.28;;;15.23
32039;BMP280;18549;42.286;22.688;2023-04-24T03:58:01;95364.12;;;15.21
32039;BMP280;18549;42.286;22.688;2023-04-24T04:00:28;95361.75;;;15.20
32039;BMP280;18549;42.286;22.688;2023-04-24T04:02:58;95354.41;;;15.18
32039;BMP280;18549;42.286;22.688;2023-04-24T04:05:25;95358.59;;;15.18
32039;BMP280;18549;42.286;22.688;2023-04-24T04:07:52;95362.78;;;15.18
32039;BMP280;18549;42.286;22.688;2023-04-24T04:10:18;95352.16;;;15.16
32039;BMP280;18549;42.286;22.688;2023-04-24T04:12:45;95354.66;;;15.16
32039;BMP280;18549;42.286;22.688;2023-04-24T04:15:13;95356.34;;;15.15
32039;BMP280;18549;42.286;22.688;2023-04-24T04:17:40;95354.78;;;15.14
32039;BMP280;18549;42.286;22.688;2023-04-24T04:20:08;95347.56;;;15.11
32039;BMP280;18549;42.286;22.688;2023-04-24T04:22:36;95350.84;;;15.12
32039;BMP280;18549;42.286;22.688;2023-04-24T04:25:03;95347.56;;;15.11
32039;BMP280;18549;42.286;22.688;2023-04-24T04:27:30;95351.63;;;15.12
32039;BMP280;18549;42.286;22.688;2023-04-24T04:30:00;95353.06;;;15.15
32039;BMP280;18549;42.286;22.688;2023-04-24T04:32:31;95357.28;;;15.14
32039;BMP280;18549;42.286;22.688;2023-04-24T04:34:58;95361.22;;;15.17
32039;BMP280;18549;42.286;22.688;2023-04-24T04:37:28;95361.75;;;15.20
32039;BMP280;18549;42.286;22.688;2023-04-24T04:39:56;95356.63;;;15.21
32039;BMP280;18549;42.286;22.688;2023-04-24T04:42:24;95363.06;;;15.24
32039;BMP280;18549;42.286;22.688;2023-04-24T04:44:50;95360.44;;;15.25
32039;BMP280;18549;42.286;22.688;2023-04-24T04:47:17;95362.78;;;15.18
32039;BMP280;18549;42.286;22.688;2023-04-24T04:49:46;95360.72;;;15.13
32039;BMP280;18549;42.286;22.688;2023-04-24T04:52:16;95360.72;;;15.13
32039;BMP280;18549;42.286;22.688;2023-04-24T04:54:43;95356.22;;;15.17
32039;BMP280;18549;42.286;22.688;2023-04-24T04:57:10;95359.91;;;15.13
32039;BMP280;18549;42.286;22.688;2023-04-24T04:59:37;95354.66;;;15.16
32039;BMP280;18549;42.286;22.688;2023-04-24T05:02:04;95361.75;;;15.20
32039;BMP280;18549;42.286;22.688;2023-04-24T05:04:31;95363.06;;;15.24
32039;BMP280;18549;42.286;22.688;2023-04-24T05:06:59;95362.00;;;15.26
32039;BMP280;18549;42.286;22.688;2023-04-24T05:09:26;95369.25;;;15.29
32039;BMP280;18549;42.286;22.688;2023-04-24T05:11:54;95364.91;;;15.31
32039;BMP280;18549;42.286;22.688;2023-04-24T05:14:21;95370.72;;;15.32
32039;BMP280;18549;42.286;22.688;2023-04-24T05:16:48;95363.22;;;15.32
32039;BMP280;18549;42.286;22.688;2023-04-24T05:19:15;95363.06;;;15.33
32039;BMP280;18549;42.286;22.688;2023-04-24T05:21:42;95363.06;;;15.33
32039;BMP280;18549;42.286;22.688;2023-04-24T05:24:12;95362.53;;;15.20
32039;BMP280;18549;42.286;22.688;2023-04-24T05:26:39;95368.59;;;15.18
32039;BMP280;18549;42.286;22.688;2023-04-24T05:29:06;95368.84;;;15.24
32039;BMP280;18549;42.286;22.688;2023-04-24T05:31:33;95371.75;;;15.29
32039;BMP280;18549;42.286;22.688;2023-04-24T05:34:00;95365.56;;;15.33
32039;BMP280;18549;42.286;22.688;2023-04-24T05:36:28;95367.66;;;15.38
32039;BMP280;18549;42.286;22.688;2023-04-24T05:38:54;95373.87;;;15.43
32039;BMP280;18549;42.286;22.688;2023-04-24T05:41:23;95371.38;;;15.43
32039;BMP280;18549;42.286;22.688;2023-04-24T05:43:50;95366.22;;;15.45
32039;BMP280;18549;42.286;22.688;2023-04-24T05:46:17;95368.34;;;15.49
32039;BMP280;18549;42.286;22.688;2023-04-24T05:48:43;95366.63;;;15.40
32039;BMP280;18549;42.286;22.688;2023-04-24T05:51:10;95370.97;;;15.38
32039;BMP280;18549;42.286;22.688;2023-04-24T05:53:37;95370.72;;;15.41
32039;BMP280;18549;42.286;22.688;2023-04-24T05:56:07;95368.34;;;15.49
32039;BMP280;18549;42.286;22.688;2023-04-24T05:58:35;95369.53;;;15.54
32039;BMP280;18549;42.286;22.688;2023-04-24T06:01:02;95370.31;;;15.55
32039;BMP280;18549;42.286;22.688;2023-04-24T06:03:29;95363.31;;;15.58
32039;BMP280;18549;42.286;22.688;2023-04-24T06:05:56;95360.97;;;15.66
32039;BMP280;18549;42.286;22.688;2023-04-24T06:08:23;95366.47;;;15.70
32039;BMP280;18549;42.286;22.688;2023-04-24T06:27:21;95337.34;;;16.51
32039;BMP280;18549;42.286;22.688;2023-04-24T06:29:50;95337.34;;;16.51
32039;BMP280;18549;42.286;22.688;2023-04-24T06:32:20;95347.12;;;15.90
32039;BMP280;18549;42.286;22.688;2023-04-24T06:34:47;95340.44;;;15.91
32039;BMP280;18549;42.286;22.688;2023-04-24T06:37:14;95343.69;;;16.01
32039;BMP280;18549;42.286;22.688;2023-04-24T06:39:43;95336.69;;;16.04
32039;BMP280;18549;42.286;22.688;2023-04-24T06:42:10;95336.16;;;16.10
32039;BMP280;18549;42.286;22.688;2023-04-24T06:44:38;95334.06;;;16.15
32039;BMP280;18549;42.286;22.688;2023-04-24T06:47:07;95334.59;;;16.18
32039;BMP280;18549;42.286;22.688;2023-04-24T06:49:35;95336.69;;;16.23
32039;BMP280;18549;42.286;22.688;2023-04-24T06:52:03;95330.47;;;16.27
32039;BMP280;18549;42.286;22.688;2023-04-24T06:54:31;95329.28;;;16.31
32039;BMP280;18549;42.286;22.688;2023-04-24T06:56:58;95331.25;;;16.37
32039;BMP280;18549;42.286;22.688;2023-04-24T06:59:26;95334.41;;;16.39
32039;BMP280;18549;42.286;22.688;2023-04-24T07:01:55;95326.38;;;16.35
32039;BMP280;18549;42.286;22.688;2023-04-24T07:04:23;95325.81;;;16.41
32039;BMP280;18549;42.286;22.688;2023-04-24T07:06:51;95329.97;;;16.50
32039;BMP280;18549;42.286;22.688;2023-04-24T07:09:20;95329.72;;;16.53
32039;BMP280;18549;42.286;22.688;2023-04-24T07:11:47;95327.28;;;16.61
32039;BMP280;18549;42.286;22.688;2023-04-24T07:14:14;95326.44;;;16.52
32039;BMP280;18549;42.286;22.688;2023-04-24T07:16:42;95330.44;;;16.63
32039;BMP280;18549;42.286;22.688;2023-04-24T07:19:11;95308.53;;;16.74
32039;BMP280;18549;42.286;22.688;2023-04-24T07:21:38;95310.91;;;16.76
32039;BMP280;18549;42.286;22.688;2023-04-24T07:24:06;95311.25;;;16.81
32039;BMP280;18549;42.286;22.688;2023-04-24T07:26:37;95304.34;;;16.92
32039;BMP280;18549;42.286;22.688;2023-04-24T07:29:05;95309.16;;;17.03
32039;BMP280;18549;42.286;22.688;2023-04-24T07:31:33;95302.25;;;17.05
32039;BMP280;18549;42.286;22.688;2023-04-24T07:34:00;95312.09;;;17.16
32039;BMP280;18549;42.286;22.688;2023-04-24T07:36:33;95303.38;;;17.19
32039;BMP280;18549;42.286;22.688;2023-04-24T07:39:00;95291.28;;;17.32
32039;BMP280;18549;42.286;22.688;2023-04-24T07:41:28;95291.56;;;17.29
32039;BMP280;18549;42.286;22.688;2023-04-24T07:43:55;95283.41;;;17.45
32039;BMP280;18549;42.286;22.688;2023-04-24T07:46:23;95285.69;;;17.55
32039;BMP280;18549;42.286;22.688;2023-04-24T07:48:51;95278.50;;;17.60
32039;BMP280;18549;42.286;22.688;2023-04-24T07:51:19;95279.19;;;17.70
32039;BMP280;18549;42.286;22.688;2023-04-24T07:53:48;95273.44;;;17.78
32039;BMP280;18549;42.286;22.688;2023-04-24T07:56:16;95278.19;;;17.81
32039;BMP280;18549;42.286;22.688;2023-04-24T07:58:44;95274.91;;;17.88
32039;BMP280;18549;42.286;22.688;2023-04-24T08:01:11;95264.44;;;17.92
32039;BMP280;18549;42.286;22.688;2023-04-24T08:03:38;95262.78;;;18.01
32039;BMP280;18549;42.286;22.688;2023-04-24T08:06:06;95259.47;;;18.00
32039;BMP280;18549;42.286;22.688;2023-04-24T08:08:33;95264.72;;;18.07
32039;BMP280;18549;42.286;22.688;2023-04-24T08:11:02;95266.47;;;18.14
32039;BMP280;18549;42.286;22.688;2023-04-24T08:13:30;95264.00;;;18.22
32039;BMP280;18549;42.286;22.688;2023-04-24T08:15:57;95245.69;;;18.29
32039;BMP280;18549;42.286;22.688;2023-04-24T08:18:25;95244.28;;;18.35
32039;BMP280;18549;42.286;22.688;2023-04-24T08:20:52;95242.88;;;18.32
32039;BMP280;18549;42.286;22.688;2023-04-24T08:23:20;95239.16;;;18.44
32039;BMP280;18549;42.286;22.688;2023-04-24T08:25:48;95236.53;;;18.53
32039;BMP280;18549;42.286;22.688;2023-04-24T08:28:17;95238.72;;;18.56
32039;BMP280;18549;42.286;22.688;2023-04-24T08:30:46;95233.56;;;18.66
32039;BMP280;18549;42.286;22.688;2023-04-24T08:33:20;95232.47;;;18.68
32039;BMP280;18549;42.286;22.688;2023-04-24T08:35:47;95223.88;;;18.79
32039;BMP280;18549;42.286;22.688;2023-04-24T08:38:15;95224.81;;;18.85
32039;BMP280;18549;42.286;22.688;2023-04-24T08:40:42;95211.50;;;18.93
32039;BMP280;18549;42.286;22.688;2023-04-24T08:43:12;95216.22;;;18.96
32039;BMP280;18549;42.286;22.688;2023-04-24T08:45:42;95214.34;;;18.98
32039;BMP280;18549;42.286;22.688;2023-04-24T08:48:10;95221.56;;;19.09
32039;BMP280;18549;42.286;22.688;2023-04-24T08:50:38;95216.06;;;19.21
32039;BMP280;18549;42.286;22.688;2023-04-24T08:53:11;95216.84;;;19.29
32039;BMP280;18549;42.286;22.688;2023-04-24T08:55:38;95209.59;;;19.42
32039;BMP280;18549;42.286;22.688;2023-04-24T08:58:07;95208.34;;;19.54
32039;BMP280;18549;42.286;22.688;2023-04-24T09:00:35;95205.81;;;19.62
32039;BMP280;18549;42.286;22.688;2023-04-24T09:03:05;95196.06;;;19.67
32039;BMP280;18549;42.286;22.688;2023-04-24T09:05:33;95190.41;;;19.73
32039;BMP280;18549;42.286;22.688;2023-04-24T09:08:02;95184.41;;;19.74
32039;BMP280;18549;42.286;22.688;2023-04-24T09:10:32;95172.97;;;19.79
32039;BMP280;18549;42.286;22.688;2023-04-24T09:13:01;95170.28;;;19.81
32039;BMP280;18549;42.286;22.688;2023-04-24T09:15:29;95170.47;;;19.79
32039;BMP280;18549;42.286;22.688;2023-04-24T09:17:56;95156.16;;;19.64
32039;BMP280;18549;42.286;22.688;2023-04-24T09:20:25;95158.66;;;19.80
32039;BMP280;18549;42.286;22.688;2023-04-24T09:22:54;95165.06;;;19.90
32039;BMP280;18549;42.286;22.688;2023-04-24T09:25:22;95166.84;;;19.82
32039;BMP280;18549;42.286;22.688;2023-04-24T09:27:53;95156.25;;;19.94
32039;BMP280;18549;42.286;22.688;2023-04-24T09:30:21;95154.16;;;20.05
32039;BMP280;18549;42.286;22.688;2023-04-24T09:35:48;95141.13;;;20.32
32039;BMP280;18549;42.286;22.688;2023-04-24T09:38:16;95148.31;;;20.43
32039;BMP280;18549;42.286;22.688;2023-04-24T09:40:44;95146.84;;;20.48
32039;BMP280;18549;42.286;22.688;2023-04-24T09:43:11;95147.91;;;20.61
32039;BMP280;18549;42.286;22.688;2023-04-24T09:45:39;95148.91;;;20.75
32039;BMP280;18549;42.286;22.688;2023-04-24T09:48:09;95139.13;;;20.80
32039;BMP280;18549;42.286;22.688;2023-04-24T09:50:37;95128.81;;;20.89
32039;BMP280;18549;42.286;22.688;2023-04-24T09:53:06;95131.88;;;20.99
32039;BMP280;18549;42.286;22.688;2023-04-24T10:13:47;95093.91;;;21.80
32039;BMP280;18549;42.286;22.688;2023-04-24T10:16:14;95093.91;;;21.80
32039;BMP280;18549;42.286;22.688;2023-04-24T10:18:42;95084.84;;;21.42
32039;BMP280;18549;42.286;22.688;2023-04-24T10:21:09;95090.34;;;21.46
32039;BMP280;18549;42.286;22.688;2023-04-24T10:23:37;95085.03;;;21.55
32039;BMP280;18549;42.286;22.688;2023-04-24T10:26:04;95086.69;;;21.48
32039;BMP280;18549;42.286;22.688;2023-04-24T10:28:32;95090.16;;;21.47
32039;BMP280;18549;42.286;22.688;2023-04-24T10:31:02;95076.00;;;21.46
32039;BMP280;18549;42.286;22.688;2023-04-24T10:33:32;95078.78;;;21.37
32039;BMP280;18549;42.286;22.688;2023-04-24T10:35:59;95079.59;;;21.29
32039;BMP280;18549;42.286;22.688;2023-04-24T10:38:28;95084.97;;;21.26
32039;BMP280;18549;42.286;22.688;2023-04-24T10:40:58;95074.38;;;21.31
32039;BMP280;18549;42.286;22.688;2023-04-24T10:43:33;95080.28;;;21.23
32039;BMP280;18549;42.286;22.688;2023-04-24T10:46:03;95081.34;;;21.15
32039;BMP280;18549;42.286;22.688;2023-04-24T10:48:31;95072.47;;;21.18
32039;BMP280;18549;42.286;22.688;2023-04-24T10:51:00;95076.75;;;21.18
32039;BMP280;18549;42.286;22.688;2023-04-24T10:53:28;95075.31;;;21.16
32039;BMP280;18549;42.286;22.688;2023-04-24T10:55:58;95083.22;;;21.13
32039;BMP280;18549;42.286;22.688;2023-04-24T10:58:37;95072.22;;;21.28
32039;BMP280;18549;42.286;22.688;2023-04-24T11:01:07;95073.72;;;21.51
32039;BMP280;18549;42.286;22.688;2023-04-24T11:03:35;95070.06;;;21.53
32039;BMP280;18549;42.286;22.688;2023-04-24T11:06:05;95068.13;;;21.70
32039;BMP280;18549;42.286;22.688;2023-04-24T11:08:37;95060.44;;;21.57
32039;BMP280;18549;42.286;22.688;2023-04-24T11:11:11;95054.59;;;21.71
32039;BMP280;18549;42.286;22.688;2023-04-24T11:14:02;95054.91;;;21.82
32039;BMP280;18549;42.286;22.688;2023-04-24T11:16:31;95042.88;;;21.98
32039;BMP280;18549;42.286;22.688;2023-04-24T11:19:03;95046.47;;;22.10
32039;BMP280;18549;42.286;22.688;2023-04-24T11:21:36;95045.31;;;22.27
32039;BMP280;18549;42.286;22.688;2023-04-24T11:24:32;95040.56;;;22.38
32039;BMP280;18549;42.286;22.688;2023-04-24T11:27:07;95030.16;;;22.48
32039;BMP280;18549;42.286;22.688;2023-04-24T11:29:46;95024.03;;;22.56
32039;BMP280;18549;42.286;22.688;2023-04-24T11:32:23;95021.47;;;22.77
32039;BMP280;18549;42.286;22.688;2023-04-24T11:34:51;95028.62;;;22.94
32039;BMP280;18549;42.286;22.688;2023-04-24T11:37:18;95027.19;;;23.13
32039;BMP280;18549;42.286;22.688;2023-04-24T11:39:45;95023.34;;;23.23
32039;BMP280;18549;42.286;22.688;2023-04-24T11:42:14;95027.66;;;23.29
32039;BMP280;18549;42.286;22.688;2023-04-24T11:44:41;95027.31;;;23.38
32039;BMP280;18549;42.286;22.688;2023-04-24T11:47:10;95017.94;;;23.26
32039;BMP280;18549;42.286;22.688;2023-04-24T11:49:38;95015.44;;;23.39
32039;BMP280;18549;42.286;22.688;2023-04-24T11:52:05;95005.47;;;23.24
32039;BMP280;18549;42.286;22.688;2023-04-24T11:54:36;95008.94;;;23.17
32039;BMP280;18549;42.286;22.688;2023-04-24T11:57:04;94997.47;;;23.21
32039;BMP280;18549;42.286;22.688;2023-04-24T11:59:35;94998.06;;;23.23
32039;BMP280;18549;42.286;22.688;2023-04-24T12:02:03;94999.91;;;23.02
32039;BMP280;18549;42.286;22.688;2023-04-24T12:04:40;94994.84;;;23.02
32039;BMP280;18549;42.286;22.688;2023-04-24T12:07:07;94981.13;;;22.84
32039;BMP280;18549;42.286;22.688;2023-04-24T12:23:59;94958.84;;;23.00
32039;BMP280;18549;42.286;22.688;2023-04-24T12:26:27;94958.84;;;23.00
32039;BMP280;18549;42.286;22.688;2023-04-24T12:28:54;94953.31;;;22.56
32039;BMP280;18549;42.286;22.688;2023-04-24T12:31:21;94944.69;;;22.45
32039;BMP280;18549;42.286;22.688;2023-04-24T12:33:49;94947.16;;;22.38
32039;BMP280;18549;42.286;22.688;2023-04-24T12:36:15;94944.31;;;22.48
32039;BMP280;18549;42.286;22.688;2023-04-24T12:38:43;94942.97;;;22.51
32039;BMP280;18549;42.286;22.688;2023-04-24T12:41:13;94936.59;;;22.55
32039;BMP280;18549;42.286;22.688;2023-04-24T12:43:51;94937.69;;;22.47
32039;BMP280;18549;42.286;22.688;2023-04-24T12:46:18;94927.97;;;22.44
32039;BMP280;18549;42.286;22.688;2023-04-24T12:48:45;94927.16;;;22.37
32039;BMP280;18549;42.286;22.688;2023-04-24T12:51:12;94915.56;;;22.49
32039;BMP280;18549;42.286;22.688;2023-04-24T12:53:39;94915.53;;;22.42
32039;BMP280;18549;42.286;22.688;2023-04-24T12:56:05;94911.84;;;22.45
32039;BMP280;18549;42.286;22.688;2023-04-24T12:58:34;94914.94;;;22.40
32039;BMP280;18549;42.286;22.688;2023-04-24T13:01:00;94900.69;;;22.33
32039;BMP280;18549;42.286;22.688;2023-04-24T13:03:27;94903.78;;;22.28
32039;BMP280;18549;42.286;22.688;2023-04-24T13:05:54;94908.53;;;22.17
32039;BMP280;18549;42.286;22.688;2023-04-24T13:08:21;94910.47;;;22.15
32039;BMP280;18549;42.286;22.688;2023-04-24T13:10:48;94900.78;;;22.18
32039;BMP280;18549;42.286;22.688;2023-04-24T13:13:16;94902.75;;;22.23
32039;BMP280;18549;42.286;22.688;2023-04-24T13:15:44;94902.16;;;22.21
32039;BMP280;18549;42.286;22.688;2023-04-24T13:18:11;94907.44;;;22.05
32039;BMP280;18549;42.286;22.688;2023-04-24T13:20:38;94903.13;;;21.99
32039;BMP280;18549;42.286;22.688;2023-04-24T13:23:06;94890.72;;;22.04
32039;BMP280;18549;42.286;22.688;2023-04-24T13:25:35;94893.94;;;22.13
32039;BMP280;18549;42.286;22.688;2023-04-24T13:28:02;94882.31;;;22.18
32039;BMP280;18549;42.286;22.688;2023-04-24T13:30:29;94887.37;;;22.18
32039;BMP280;18549;42.286;22.688;2023-04-24T13:32:57;94873.03;;;22.18
32039;BMP280;18549;42.286;22.688;2023-04-24T13:35:24;94880.84;;;22.23
32039;BMP280;18549;42.286;22.688;2023-04-24T13:37:51;94869.59;;;22.05
32039;BMP280;18549;42.286;22.688;2023-04-24T13:40:18;94871.06;;;22.14
32039;BMP280;18549;42.286;22.688;2023-04-24T13:42:45;94872.97;;;22.12
32039;BMP280;18549;42.286;22.688;2023-04-24T13:45:11;94872.72;;;22.07
32039;BMP280;18549;42.286;22.688;2023-04-24T13:47:38;94861.31;;;22.11
32039;BMP280;18549;42.286;22.688;2023-04-24T13:50:10;94862.19;;;22.24
32039;BMP280;18549;42.286;22.688;2023-04-24T13:52:36;94859.53;;;22.32
32039;BMP280;18549;42.286;22.688;2023-04-24T13:55:04;94867.66;;;22.28
32039;BMP280;18549;42.286;22.688;2023-04-24T13:57:31;94850.31;;;22.18
32039;BMP280;18549;42.286;22.688;2023-04-24T13:59:58;94849.41;;;22.05
32039;BMP280;18549;42.286;22.688;2023-04-24T14:02:27;94852.28;;;22.02
32039;BMP280;18549;42.286;22.688;2023-04-24T14:04:53;94847.75;;;22.12
32039;BMP280;18549;42.286;22.688;2023-04-24T14:07:21;94848.56;;;22.19
32039;BMP280;18549;42.286;22.688;2023-04-24T14:09:48;94847.75;;;22.12
32039;BMP280;18549;42.286;22.688;2023-04-24T14:12:16;94846.66;;;22.27
32039;BMP280;18549;42.286;22.688;2023-04-24T14:14:45;94856.81;;;22.34
32039;BMP280;18549;42.286;22.688;2023-04-24T14:17:12;94853.47;;;22.27
32039;BMP280;18549;42.286;22.688;2023-04-24T14:19:39;94857.22;;;22.10
32039;BMP280;18549;42.286;22.688;2023-04-24T14:22:06;94853.63;;;22.19
32039;BMP280;18549;42.286;22.688;2023-04-24T14:24:34;94845.84;;;22.20
32039;BMP280;18549;42.286;22.688;2023-04-24T14:27:01;94842.53;;;22.20
32039;BMP280;18549;42.286;22.688;2023-04-24T14:29:28;94840.78;;;22.14
32039;BMP280;18549;42.286;22.688;2023-04-24T14:31:55;94840.69;;;22.08
32039;BMP280;18549;42.286;22.688;2023-04-24T14:34:22;94837.03;;;22.10
32039;BMP280;18549;42.286;22.688;2023-04-24T14:36:49;94837.28;;;22.15
32039;BMP280;18549;42.286;22.688;2023-04-24T14:39:15;94841.59;;;22.21
32039;BMP280;18549;42.286;22.688;2023-04-24T14:41:44;94834.91;;;22.14
32039;BMP280;18549;42.286;22.688;2023-04-24T14:44:11;94830.41;;;22.09
32039;BMP280;18549;42.286;22.688;2023-04-24T14:46:38;94835.13;;;22.12
32039;BMP280;18549;42.286;22.688;2023-04-24T14:49:05;94827.94;;;22.16
32039;BMP280;18549;42.286;22.688;2023-04-24T14:51:34;94823.47;;;22.11
32039;BMP280;18549;42.286;22.688;2023-04-24T14:54:02;94822.03;;;22.09